Krizevci, Croatia
Current Conditions -  °F | °C
As of 3:30 AM on Sunday 26 Oct 2014 (Local Time) from LDZA Reporting Station
Overcast Overcast  
Wind Chill: 43°   Ceiling: 3000
Heat Index: 43°   Visibility: 4mi
Dew Point: 41°   Wind: 2mph
Humidity: 93%   Direction: NA
Pressure: 30.3"   Gusts: NA
Location:  46.02°N, 16.55°E
Report Text: LDZA 260130Z VRB02KT 6000 FEW013 OVC030 06/05 Q1026 NOSIG
Loading
Personal Weather Stations






























Interactive Weather Map
Tropical Storm Tracking
New forecast layout! Learn more

10-Day Weather Forecast

Advertisements
Track Severe Weather on mobile